UAL570 KEWR-KSLC
Flight info
| Callsign | UAL570 |
|---|---|
| Flight time | 0h 53m |
| Altitude | 38000 |
| Route | COATE Q436 RAAKK Q440 SLLAP KP87M GRB RWF/N0479F400 KP87C KP87A RAP J158 DDY CARTR1 |
| Aircraft | B772/H-SDE2E3FGHIJ5LORVWXY/LB1D1 |
Departure
| Time | 2026-05-05 14:44 |
|---|---|
| Airport | Newark Liberty International Airport (KEWR) |
Arrival
| Time | 2026-05-05 15:37 |
|---|---|
| Airport | Salt Lake City International Airport (KSLC) |
| Time | Latitude | Longitude | Altitude | Speed | Heading |
|---|---|---|---|---|---|
| 2026-05-05 14:14 | 40.69747 | -74.17810 | 26 ft | 0 kts | 245° |
| 2026-05-05 14:34 | 40.69750 | -74.17801 | 25 ft | 4 kts | 245° |
| 2026-05-05 14:34 | 40.69759 | -74.17775 | 25 ft | 4 kts | 244° |
| 2026-05-05 14:35 | 40.69773 | -74.17745 | 25 ft | 4 kts | 232° |
| 2026-05-05 14:35 | 40.69791 | -74.17719 | 24 ft | 4 kts | 220° |
| 2026-05-05 14:35 | 40.69812 | -74.17697 | 25 ft | 3 kts | 220° |
| 2026-05-05 14:35 | 40.69827 | -74.17678 | 24 ft | 4 kts | 238° |
| 2026-05-05 14:36 | 40.69837 | -74.17646 | 26 ft | 4 kts | 250° |
| 2026-05-05 14:36 | 40.69851 | -74.17619 | 25 ft | 4 kts | 213° |
| 2026-05-05 14:36 | 40.69870 | -74.17610 | 25 ft | 4 kts | 142° |
| 2026-05-05 14:36 | 40.69875 | -74.17626 | 24 ft | 4 kts | 45° |
| 2026-05-05 14:37 | 40.69855 | -74.17649 | 25 ft | 4 kts | 40° |
| 2026-05-05 14:37 | 40.69850 | -74.17655 | 24 ft | 0 kts | 40° |
| 2026-05-05 14:39 | 40.69869 | -74.17633 | 26 ft | 11 kts | 40° |
| 2026-05-05 14:39 | 40.69912 | -74.17544 | 26 ft | 12 kts | 58° |
| 2026-05-05 14:39 | 40.69970 | -74.17468 | 26 ft | 12 kts | 45° |
| 2026-05-05 14:39 | 40.70028 | -74.17391 | 26 ft | 12 kts | 41° |
| 2026-05-05 14:40 | 40.70101 | -74.17354 | 27 ft | 11 kts | 36° |
| 2026-05-05 14:40 | 40.70118 | -74.17256 | 27 ft | 11 kts | 95° |
| 2026-05-05 14:40 | 40.70107 | -74.17096 | 26 ft | 20 kts | 95° |
| 2026-05-05 14:40 | 40.70095 | -74.16917 | 26 ft | 20 kts | 95° |
| 2026-05-05 14:41 | 40.70083 | -74.16738 | 29 ft | 20 kts | 95° |
| 2026-05-05 14:41 | 40.70071 | -74.16562 | 29 ft | 16 kts | 95° |
| 2026-05-05 14:41 | 40.70068 | -74.16510 | 28 ft | 0 kts | 95° |
| 2026-05-05 14:42 | 40.70066 | -74.16487 | 26 ft | 9 kts | 95° |
| 2026-05-05 14:42 | 40.70061 | -74.16401 | 26 ft | 9 kts | 95° |
| 2026-05-05 14:43 | 40.70036 | -74.16362 | 27 ft | 6 kts | 184° |
| 2026-05-05 14:43 | 40.69993 | -74.16383 | 25 ft | 9 kts | 206° |
| 2026-05-05 14:43 | 40.69740 | -74.16547 | 30 ft | 76 kts | 206° |
| 2026-05-05 14:43 | 40.69057 | -74.16981 | 27 ft | 140 kts | 206° |
| 2026-05-05 14:44 | 40.68061 | -74.17611 | 379 ft | 166 kts | 207° |
| 2026-05-05 14:44 | 40.66973 | -74.18200 | 1071 ft | 177 kts | 199° |
| 2026-05-05 14:44 | 40.65747 | -74.18642 | 1525 ft | 188 kts | 209° |
| 2026-05-05 14:44 | 40.64595 | -74.19632 | 1721 ft | 210 kts | 221° |
| 2026-05-05 14:45 | 40.63353 | -74.20812 | 2075 ft | 231 kts | 218° |
| 2026-05-05 14:45 | 40.62086 | -74.22171 | 2511 ft | 238 kts | 234° |
| 2026-05-05 14:45 | 40.61393 | -74.24135 | 3221 ft | 238 kts | 262° |
| 2026-05-05 14:45 | 40.61605 | -74.26282 | 4040 ft | 243 kts | 294° |
| 2026-05-05 14:46 | 40.62759 | -74.27929 | 4696 ft | 258 kts | 323° |
| 2026-05-05 14:46 | 40.64300 | -74.29184 | 5245 ft | 266 kts | 323° |
| 2026-05-05 14:46 | 40.65901 | -74.30484 | 5869 ft | 273 kts | 322° |
| 2026-05-05 14:46 | 40.67533 | -74.31810 | 6529 ft | 278 kts | 322° |
| 2026-05-05 14:47 | 40.69187 | -74.33153 | 7257 ft | 280 kts | 322° |
| 2026-05-05 14:47 | 40.70852 | -74.34502 | 8021 ft | 282 kts | 321° |
| 2026-05-05 14:47 | 40.72529 | -74.35865 | 8879 ft | 284 kts | 321° |
| 2026-05-05 14:47 | 40.74224 | -74.37242 | 9743 ft | 288 kts | 320° |
| 2026-05-05 14:48 | 40.75941 | -74.38643 | 10405 ft | 296 kts | 320° |
| 2026-05-05 14:48 | 40.77760 | -74.40138 | 10619 ft | 320 kts | 321° |
| 2026-05-05 14:48 | 40.82864 | -74.44317 | 11816 ft | 361 kts | 322° |
| 2026-05-05 14:48 | 40.91413 | -74.51267 | 15639 ft | 362 kts | 322° |
| 2026-05-05 14:49 | 41.00139 | -74.58423 | 18591 ft | 378 kts | 323° |
| 2026-05-05 14:49 | 41.09165 | -74.65842 | 21059 ft | 392 kts | 323° |
| 2026-05-05 14:49 | 41.16644 | -74.76216 | 23375 ft | 397 kts | 297° |
| 2026-05-05 14:49 | 41.22235 | -74.89286 | 25319 ft | 415 kts | 297° |
| 2026-05-05 14:50 | 41.28063 | -75.02772 | 27243 ft | 428 kts | 297° |
| 2026-05-05 14:50 | 41.34048 | -75.16641 | 29118 ft | 436 kts | 298° |
| 2026-05-05 14:50 | 41.40138 | -75.30827 | 30493 ft | 447 kts | 298° |
| 2026-05-05 14:50 | 41.46359 | -75.45382 | 31651 ft | 454 kts | 298° |
| 2026-05-05 14:51 | 41.51254 | -75.60882 | 32930 ft | 452 kts | 289° |
| 2026-05-05 14:51 | 41.55678 | -75.76411 | 34395 ft | 446 kts | 289° |
| 2026-05-05 14:51 | 41.60043 | -75.91748 | 35815 ft | 437 kts | 289° |
| 2026-05-05 14:51 | 41.64319 | -76.06980 | 36744 ft | 438 kts | 288° |
| 2026-05-05 14:52 | 41.68574 | -76.22196 | 37767 ft | 434 kts | 288° |
| 2026-05-05 14:52 | 41.72854 | -76.37401 | 37850 ft | 438 kts | 288° |
| 2026-05-05 14:52 | 41.81234 | -76.67509 | 37707 ft | 427 kts | 287° |
| 2026-05-05 14:53 | 41.85310 | -76.82357 | 37817 ft | 422 kts | 287° |
| 2026-05-05 14:53 | 41.89380 | -76.97276 | 37840 ft | 430 kts | 286° |
| 2026-05-05 14:53 | 41.93510 | -77.12606 | 37807 ft | 441 kts | 286° |
| 2026-05-05 14:53 | 41.97647 | -77.28038 | 37836 ft | 437 kts | 287° |
| 2026-05-05 14:54 | 42.05769 | -77.58153 | 37721 ft | 421 kts | 287° |
| 2026-05-05 14:54 | 42.10005 | -77.73793 | 37945 ft | 418 kts | 287° |
| 2026-05-05 14:54 | 42.17924 | -78.03343 | 38043 ft | 423 kts | 287° |
| 2026-05-05 14:55 | 42.25822 | -78.33289 | 37812 ft | 423 kts | 286° |
| 2026-05-05 14:55 | 42.33161 | -78.63148 | 37771 ft | 422 kts | 285° |
| 2026-05-05 14:55 | 42.47729 | -79.22754 | 37701 ft | 408 kts | 285° |
| 2026-05-05 14:56 | 42.61442 | -79.81331 | 37702 ft | 404 kts | 276° |
| 2026-05-05 14:56 | 42.62606 | -80.11739 | 37816 ft | 408 kts | 271° |
| 2026-05-05 14:56 | 42.63907 | -80.42850 | 37812 ft | 416 kts | 271° |
| 2026-05-05 14:57 | 42.65706 | -80.94440 | 37693 ft | 404 kts | 271° |
| 2026-05-05 14:57 | 42.70977 | -81.63700 | 37770 ft | 394 kts | 276° |
| 2026-05-05 14:58 | 42.77569 | -82.23401 | 37836 ft | 407 kts | 275° |
| 2026-05-05 14:58 | 42.83543 | -82.75140 | 37752 ft | 415 kts | 277° |
| 2026-05-05 14:59 | 42.92624 | -83.35913 | 37726 ft | 416 kts | 288° |
| 2026-05-05 14:59 | 43.11785 | -83.92114 | 37787 ft | 407 kts | 289° |
| 2026-05-05 15:00 | 43.30351 | -84.48538 | 37865 ft | 405 kts | 289° |
| 2026-05-05 15:00 | 43.48872 | -85.05065 | 37811 ft | 407 kts | 291° |
| 2026-05-05 15:01 | 43.69005 | -85.60890 | 37828 ft | 406 kts | 291° |
| 2026-05-05 15:01 | 43.88688 | -86.17069 | 37811 ft | 405 kts | 290° |
| 2026-05-05 15:02 | 44.08126 | -86.73720 | 37877 ft | 407 kts | 290° |
| 2026-05-05 15:02 | 44.27308 | -87.30815 | 37836 ft | 408 kts | 290° |
| 2026-05-05 15:03 | 44.46350 | -87.88745 | 37835 ft | 413 kts | 290° |
| 2026-05-05 15:03 | 44.56001 | -88.49762 | 37904 ft | 405 kts | 270° |
| 2026-05-05 15:04 | 44.56764 | -89.13981 | 37869 ft | 419 kts | 270° |
| 2026-05-05 15:04 | 44.57185 | -89.78480 | 37794 ft | 407 kts | 270° |
| 2026-05-05 15:05 | 44.57145 | -90.72969 | 37868 ft | 402 kts | 269° |
| 2026-05-05 15:06 | 44.56687 | -91.35859 | 37879 ft | 404 kts | 269° |
| 2026-05-05 15:06 | 44.55878 | -91.99094 | 37908 ft | 405 kts | 268° |
| 2026-05-05 15:07 | 44.54722 | -92.62367 | 37929 ft | 406 kts | 268° |
| 2026-05-05 15:07 | 44.53206 | -93.25856 | 37945 ft | 408 kts | 268° |
| 2026-05-05 15:08 | 44.51348 | -93.89054 | 37945 ft | 409 kts | 268° |
| 2026-05-05 15:08 | 44.49123 | -94.52800 | 37973 ft | 410 kts | 267° |
| 2026-05-05 15:09 | 44.46646 | -95.16755 | 37968 ft | 413 kts | 270° |
| 2026-05-05 15:09 | 44.47534 | -95.49413 | 39003 ft | 423 kts | 272° |
| 2026-05-05 15:09 | 44.48153 | -95.82379 | 39994 ft | 425 kts | 272° |
| 2026-05-05 15:10 | 44.49165 | -96.49125 | 39988 ft | 425 kts | 271° |
| 2026-05-05 15:10 | 44.49769 | -97.14106 | 39955 ft | 411 kts | 271° |
| 2026-05-05 15:11 | 44.50003 | -97.78241 | 40068 ft | 416 kts | 270° |
| 2026-05-05 15:11 | 44.50308 | -98.43783 | 40013 ft | 426 kts | 271° |
| 2026-05-05 15:12 | 44.50433 | -99.09175 | 39969 ft | 414 kts | 270° |
| 2026-05-05 15:12 | 44.50204 | -99.73115 | 40031 ft | 409 kts | 270° |
| 2026-05-05 15:13 | 44.44090 | -100.36527 | 40152 ft | 421 kts | 259° |
| 2026-05-05 15:13 | 44.33381 | -101.01160 | 40047 ft | 424 kts | 259° |
| 2026-05-05 15:14 | 44.22538 | -101.64142 | 40022 ft | 412 kts | 258° |
| 2026-05-05 15:14 | 44.11507 | -102.26023 | 40100 ft | 413 kts | 258° |
| 2026-05-05 15:15 | 43.99886 | -102.89046 | 40107 ft | 432 kts | 258° |
| 2026-05-05 15:15 | 43.84621 | -103.51853 | 39951 ft | 425 kts | 253° |
| 2026-05-05 15:16 | 43.68735 | -104.12593 | 40021 ft | 416 kts | 253° |
| 2026-05-05 15:16 | 43.52684 | -104.72367 | 40043 ft | 416 kts | 252° |
| 2026-05-05 15:17 | 43.36269 | -105.32038 | 40008 ft | 416 kts | 251° |
| 2026-05-05 15:17 | 43.19549 | -105.91328 | 39991 ft | 417 kts | 251° |
| 2026-05-05 15:18 | 43.03578 | -106.50945 | 40084 ft | 418 kts | 255° |
| 2026-05-05 15:18 | 42.88893 | -107.12335 | 40041 ft | 432 kts | 253° |
| 2026-05-05 15:19 | 42.73650 | -107.74195 | 39975 ft | 432 kts | 253° |
| 2026-05-05 15:19 | 42.58120 | -108.35567 | 40003 ft | 427 kts | 253° |
| 2026-05-05 15:20 | 42.42334 | -108.96401 | 39989 ft | 430 kts | 252° |
| 2026-05-05 15:20 | 42.25813 | -109.58388 | 39940 ft | 449 kts | 252° |
| 2026-05-05 15:21 | 42.17979 | -109.87252 | 39517 ft | 459 kts | 252° |
| 2026-05-05 15:21 | 42.16879 | -109.91275 | 39115 ft | 455 kts | 252° |
| 2026-05-05 15:21 | 42.15790 | -109.95249 | 38689 ft | 449 kts | 252° |
| 2026-05-05 15:21 | 42.14162 | -110.01181 | 37996 ft | 441 kts | 252° |
| 2026-05-05 15:22 | 42.09996 | -110.16304 | 36354 ft | 421 kts | 252° |
| 2026-05-05 15:22 | 42.05988 | -110.30775 | 34928 ft | 404 kts | 253° |
| 2026-05-05 15:22 | 42.02119 | -110.44669 | 33535 ft | 389 kts | 253° |
| 2026-05-05 15:22 | 41.98378 | -110.58038 | 32128 ft | 374 kts | 252° |
| 2026-05-05 15:23 | 41.94769 | -110.70868 | 30801 ft | 360 kts | 251° |
| 2026-05-05 15:23 | 41.91811 | -110.83380 | 29521 ft | 345 kts | 263° |
| 2026-05-05 15:23 | 41.91140 | -110.96125 | 28304 ft | 341 kts | 268° |
| 2026-05-05 15:23 | 41.90531 | -111.09086 | 27260 ft | 358 kts | 267° |
| 2026-05-05 15:24 | 41.89849 | -111.22764 | 25987 ft | 372 kts | 268° |
| 2026-05-05 15:24 | 41.89151 | -111.36396 | 24711 ft | 368 kts | 268° |
| 2026-05-05 15:24 | 41.88441 | -111.49975 | 23441 ft | 359 kts | 268° |
| 2026-05-05 15:24 | 41.86882 | -111.62974 | 22076 ft | 347 kts | 257° |
| 2026-05-05 15:25 | 41.84426 | -111.75179 | 20973 ft | 329 kts | 257° |
| 2026-05-05 15:25 | 41.82780 | -111.83475 | 20186 ft | 323 kts | 257° |
| 2026-05-05 15:25 | 41.81625 | -111.89287 | 19679 ft | 322 kts | 257° |
| 2026-05-05 15:25 | 41.80465 | -111.95100 | 19161 ft | 323 kts | 257° |
| 2026-05-05 15:26 | 41.79718 | -111.97956 | 18873 ft | 331 kts | 242° |
| 2026-05-05 15:26 | 41.78163 | -112.00296 | 18586 ft | 344 kts | 216° |
| 2026-05-05 15:26 | 41.75974 | -112.01577 | 18287 ft | 348 kts | 192° |
| 2026-05-05 15:26 | 41.73581 | -112.01997 | 17971 ft | 347 kts | 187° |
| 2026-05-05 15:27 | 41.71183 | -112.02331 | 17647 ft | 345 kts | 187° |
| 2026-05-05 15:27 | 41.68816 | -112.02662 | 17393 ft | 340 kts | 187° |
| 2026-05-05 15:27 | 41.65762 | -112.03108 | 17013 ft | 336 kts | 187° |
| 2026-05-05 15:27 | 41.61199 | -112.03808 | 16426 ft | 331 kts | 188° |
| 2026-05-05 15:28 | 41.56660 | -112.04514 | 15860 ft | 325 kts | 187° |
| 2026-05-05 15:28 | 41.52167 | -112.04552 | 15320 ft | 322 kts | 178° |
| 2026-05-05 15:28 | 41.47686 | -112.04209 | 14681 ft | 323 kts | 178° |
| 2026-05-05 15:28 | 41.43171 | -112.03909 | 14174 ft | 325 kts | 178° |
| 2026-05-05 15:29 | 41.38629 | -112.03643 | 13658 ft | 327 kts | 179° |
| 2026-05-05 15:29 | 41.34098 | -112.03391 | 13079 ft | 324 kts | 179° |
| 2026-05-05 15:29 | 41.29644 | -112.03145 | 12499 ft | 316 kts | 179° |
| 2026-05-05 15:29 | 41.25307 | -112.02913 | 11930 ft | 308 kts | 180° |
| 2026-05-05 15:30 | 41.22573 | -112.03060 | 11430 ft | 307 kts | 186° |
| 2026-05-05 15:30 | 41.20442 | -112.03294 | 11037 ft | 307 kts | 186° |
| 2026-05-05 15:30 | 41.18309 | -112.03510 | 10642 ft | 308 kts | 185° |
| 2026-05-05 15:30 | 41.16203 | -112.03704 | 10279 ft | 306 kts | 185° |
| 2026-05-05 15:31 | 41.14074 | -112.03777 | 9943 ft | 305 kts | 180° |
| 2026-05-05 15:31 | 41.11955 | -112.03615 | 9752 ft | 293 kts | 176° |
| 2026-05-05 15:31 | 41.09996 | -112.03372 | 9572 ft | 273 kts | 176° |
| 2026-05-05 15:31 | 41.08157 | -112.03141 | 9413 ft | 260 kts | 177° |
| 2026-05-05 15:32 | 41.06401 | -112.02931 | 9214 ft | 254 kts | 176° |
| 2026-05-05 15:32 | 41.04674 | -112.02728 | 8869 ft | 244 kts | 176° |
| 2026-05-05 15:32 | 41.03016 | -112.02533 | 8546 ft | 234 kts | 175° |
| 2026-05-05 15:32 | 41.01425 | -112.02346 | 8237 ft | 224 kts | 175° |
| 2026-05-05 15:33 | 40.99908 | -112.02167 | 8009 ft | 215 kts | 175° |
| 2026-05-05 15:33 | 40.98415 | -112.01992 | 7677 ft | 215 kts | 176° |
| 2026-05-05 15:33 | 40.96939 | -112.01820 | 7383 ft | 210 kts | 175° |
| 2026-05-05 15:33 | 40.95521 | -112.01653 | 7100 ft | 200 kts | 175° |
| 2026-05-05 15:34 | 40.94173 | -112.01495 | 6858 ft | 188 kts | 175° |
| 2026-05-05 15:34 | 40.92916 | -112.01348 | 6658 ft | 177 kts | 175° |
| 2026-05-05 15:34 | 40.91712 | -112.01207 | 6466 ft | 172 kts | 174° |
| 2026-05-05 15:34 | 40.90533 | -112.01069 | 6253 ft | 169 kts | 174° |
| 2026-05-05 15:35 | 40.89398 | -112.00936 | 6043 ft | 158 kts | 174° |
| 2026-05-05 15:35 | 40.88344 | -112.00815 | 5867 ft | 149 kts | 175° |
| 2026-05-05 15:35 | 40.87309 | -112.00699 | 5655 ft | 148 kts | 174° |
| 2026-05-05 15:35 | 40.86283 | -112.00570 | 5392 ft | 149 kts | 174° |
| 2026-05-05 15:36 | 40.85257 | -112.00461 | 5195 ft | 146 kts | 174° |
| 2026-05-05 15:36 | 40.84252 | -112.00345 | 4975 ft | 144 kts | 174° |
| 2026-05-05 15:36 | 40.83260 | -112.00217 | 4794 ft | 147 kts | 174° |
| 2026-05-05 15:36 | 40.82264 | -112.00117 | 4586 ft | 144 kts | 174° |
| 2026-05-05 15:37 | 40.81289 | -111.99988 | 4363 ft | 140 kts | 175° |
| 2026-05-05 15:37 | 40.80321 | -111.99879 | 4263 ft | 136 kts | 174° |
| 2026-05-05 15:37 | 40.79477 | -111.99779 | 4234 ft | 102 kts | 175° |
| 2026-05-05 15:37 | 40.78955 | -111.99719 | 4238 ft | 48 kts | 174° |
| 2026-05-05 15:38 | 40.78696 | -111.99688 | 4238 ft | 30 kts | 173° |
| 2026-05-05 15:38 | 40.78515 | -111.99605 | 4235 ft | 22 kts | 144° |
| 2026-05-05 15:38 | 40.78452 | -111.99528 | 4234 ft | 7 kts | 130° |
| 2026-05-05 15:38 | 40.78448 | -111.99467 | 4236 ft | 7 kts | 58° |
| 2026-05-05 15:39 | 40.78494 | -111.99447 | 4236 ft | 7 kts | 3° |
| 2026-05-05 15:39 | 40.78530 | -111.99450 | 4236 ft | 3 kts | 354° |
| 2026-05-05 15:39 | 40.78550 | -111.99452 | 4236 ft | 0 kts | 354° |
| 2026-05-05 15:40 | 40.78583 | -111.99456 | 4236 ft | 9 kts | 355° |
| 2026-05-05 15:40 | 40.78664 | -111.99466 | 4236 ft | 12 kts | 355° |
| 2026-05-05 15:40 | 40.78747 | -111.99475 | 4236 ft | 12 kts | 355° |
| 2026-05-05 15:41 | 40.78830 | -111.99485 | 4236 ft | 12 kts | 355° |
| 2026-05-05 15:41 | 40.78912 | -111.99495 | 4236 ft | 12 kts | 355° |
| 2026-05-05 15:41 | 40.78995 | -111.99504 | 4236 ft | 12 kts | 355° |
| 2026-05-05 15:41 | 40.79064 | -111.99512 | 4236 ft | 8 kts | 358° |
| 2026-05-05 15:42 | 40.79095 | -111.99460 | 4236 ft | 8 kts | 85° |
| 2026-05-05 15:42 | 40.79099 | -111.99386 | 4236 ft | 8 kts | 85° |
| 2026-05-05 15:42 | 40.79098 | -111.99323 | 4236 ft | 8 kts | 109° |
| 2026-05-05 15:42 | 40.79049 | -111.99292 | 4236 ft | 8 kts | 172° |
| 2026-05-05 15:43 | 40.79000 | -111.99264 | 4236 ft | 8 kts | 120° |
| 2026-05-05 15:43 | 40.78997 | -111.99190 | 4236 ft | 8 kts | 84° |
| 2026-05-05 15:43 | 40.79002 | -111.99121 | 4236 ft | 5 kts | 86° |
| 2026-05-05 15:43 | 40.79000 | -111.99088 | 4234 ft | 4 kts | 116° |
| 2026-05-05 15:44 | 40.78976 | -111.99074 | 4236 ft | 4 kts | 167° |
| 2026-05-05 15:44 | 40.78950 | -111.99071 | 4236 ft | 3 kts | 176° |
| 2026-05-05 15:44 | 40.78939 | -111.99070 | 4236 ft | 1 kts | 175° |
| 2026-05-05 15:44 | 40.78934 | -111.99069 | 4236 ft | 0 kts | 175° |